createdAt,value
2022-10-22T00:00:19.030Z,13.24
2022-10-22T00:03:05.460Z,13.01
2022-10-22T00:05:51.827Z,12.80
2022-10-22T00:08:38.551Z,13.03
2022-10-22T00:11:34.255Z,12.90
2022-10-22T00:14:21.049Z,13.18
2022-10-22T00:17:11.201Z,12.79
2022-10-22T00:19:58.167Z,12.93
2022-10-22T00:22:44.679Z,12.96
2022-10-22T00:25:31.693Z,12.95
2022-10-22T00:28:18.297Z,12.88
2022-10-22T00:31:04.948Z,13.03
2022-10-22T00:33:51.534Z,13.06
2022-10-22T00:36:37.771Z,12.99
2022-10-22T00:39:25.929Z,13.18
2022-10-22T00:42:19.322Z,13.15
2022-10-22T00:45:12.068Z,13.19
2022-10-22T00:48:07.198Z,13.16
2022-10-22T00:51:00.854Z,12.88
2022-10-22T00:53:50.870Z,13.16
2022-10-22T00:56:38.094Z,13.00
2022-10-22T00:59:24.474Z,13.11
2022-10-22T01:02:10.741Z,13.09
2022-10-22T01:04:56.899Z,13.13
2022-10-22T01:07:47.807Z,12.89
2022-10-22T01:11:08.047Z,12.80
2022-10-22T01:14:35.934Z,13.00
2022-10-22T01:17:37.498Z,12.87
2022-10-22T01:20:48.377Z,12.79
2022-10-22T01:24:11.958Z,12.85
2022-10-22T01:27:16.751Z,12.79
2022-10-22T01:30:06.896Z,12.82
2022-10-22T01:32:59.364Z,12.82
2022-10-22T01:35:46.183Z,12.77
2022-10-22T01:38:33.874Z,12.66
2022-10-22T01:41:20.379Z,12.89
2022-10-22T01:44:06.583Z,12.76
2022-10-22T01:47:05.471Z,12.74
2022-10-22T01:50:04.350Z,12.79
2022-10-22T01:53:12.553Z,12.79
2022-10-22T01:56:01.999Z,12.91
2022-10-22T01:59:14.648Z,12.71
2022-10-22T02:02:13.173Z,12.82
2022-10-22T02:05:13.994Z,12.76
2022-10-22T02:08:05.745Z,12.79
2022-10-22T02:10:53.528Z,12.50
2022-10-22T02:13:44.460Z,12.64
2022-10-22T02:16:36.302Z,12.42
2022-10-22T02:19:27.322Z,12.64
2022-10-22T02:22:13.848Z,12.41
2022-10-22T02:25:00.618Z,12.30
2022-10-22T02:28:00.213Z,12.45
2022-10-22T02:30:54.759Z,12.48
2022-10-22T02:33:47.254Z,12.42
2022-10-22T02:36:34.750Z,12.32
2022-10-22T02:39:21.805Z,12.33
2022-10-22T02:42:12.081Z,12.17
2022-10-22T02:44:58.467Z,12.29
2022-10-22T02:47:45.191Z,12.21
2022-10-22T02:50:31.453Z,12.13
2022-10-22T02:53:17.870Z,11.92
2022-10-22T02:56:04.396Z,11.92
2022-10-22T02:58:50.984Z,11.89
2022-10-22T03:01:37.225Z,11.87
2022-10-22T03:04:23.519Z,11.80
2022-10-22T03:07:09.611Z,11.72
2022-10-22T03:09:56.038Z,11.83
2022-10-22T03:12:42.203Z,11.68
2022-10-22T03:18:14.864Z,12.03
2022-10-22T03:21:28.991Z,12.14
2022-10-22T03:24:22.458Z,11.99
2022-10-22T03:27:09.606Z,12.16
2022-10-22T03:29:57.087Z,11.72
2022-10-22T03:32:43.405Z,11.80
2022-10-22T03:35:31.499Z,11.78
2022-10-22T03:38:17.940Z,11.76
2022-10-22T03:41:04.915Z,11.70
2022-10-22T03:43:53.108Z,11.73
2022-10-22T03:46:39.621Z,11.76
2022-10-22T03:49:25.730Z,11.78
2022-10-22T03:52:14.698Z,11.77
2022-10-22T03:55:00.873Z,11.75
2022-10-22T03:57:46.982Z,11.69
2022-10-22T04:00:35.054Z,11.66
2022-10-22T04:03:21.394Z,11.81
2022-10-22T04:06:13.085Z,11.80
2022-10-22T04:08:59.733Z,11.80
2022-10-22T04:11:45.971Z,11.73
2022-10-22T04:14:32.760Z,11.72
2022-10-22T04:17:18.796Z,11.68
2022-10-22T04:20:06.345Z,11.66
2022-10-22T04:22:52.539Z,11.91
2022-10-22T04:25:38.901Z,11.69
2022-10-22T04:28:25.405Z,11.83
2022-10-22T04:31:14.599Z,11.82
2022-10-22T04:34:01.478Z,11.79
2022-10-22T04:36:47.658Z,11.54
2022-10-22T04:39:33.802Z,11.71
2022-10-22T04:42:19.863Z,11.65
2022-10-22T04:45:06.658Z,11.48
2022-10-22T04:47:53.206Z,11.56
2022-10-22T04:50:39.366Z,11.57
2022-10-22T04:53:29.178Z,11.49
2022-10-22T04:56:21.887Z,11.65
2022-10-22T04:59:10.474Z,11.23
2022-10-22T05:01:57.141Z,11.36
2022-10-22T05:04:44.355Z,11.25
2022-10-22T05:07:30.833Z,11.41
2022-10-22T05:10:17.254Z,11.32
2022-10-22T05:13:03.399Z,11.30
2022-10-22T05:15:49.516Z,11.25
2022-10-22T05:18:37.662Z,11.18
2022-10-22T05:21:24.118Z,11.35
2022-10-22T05:24:10.433Z,11.11
2022-10-22T05:26:58.304Z,11.21
2022-10-22T05:29:44.446Z,11.08
2022-10-22T05:32:30.715Z,10.94
2022-10-22T05:35:17.067Z,11.25
2022-10-22T05:38:03.194Z,11.19
2022-10-22T05:40:59.813Z,11.36
2022-10-22T05:43:46.186Z,11.34
2022-10-22T05:46:35.256Z,11.32
2022-10-22T05:49:21.563Z,11.39
2022-10-22T05:52:07.660Z,11.42
2022-10-22T05:54:53.995Z,11.41
2022-10-22T05:57:40.675Z,11.36
2022-10-22T06:00:27.184Z,11.59
2022-10-22T06:03:13.390Z,11.50
2022-10-22T06:06:01.729Z,11.68
2022-10-22T06:08:49.991Z,11.66
2022-10-22T06:11:36.897Z,11.65
2022-10-22T06:14:24.109Z,11.68
2022-10-22T06:17:12.105Z,11.68
2022-10-22T06:19:58.508Z,11.68
2022-10-22T06:22:44.870Z,11.63
2022-10-22T06:25:31.427Z,11.80
2022-10-22T06:28:17.901Z,11.96
2022-10-22T06:31:04.875Z,11.91
2022-10-22T06:33:51.133Z,11.73
2022-10-22T06:36:37.910Z,11.83
2022-10-22T06:39:24.271Z,11.69
2022-10-22T06:42:10.754Z,11.86
2022-10-22T06:44:59.322Z,11.76
2022-10-22T06:47:46.668Z,11.75
2022-10-22T06:50:36.838Z,11.93
2022-10-22T06:53:23.341Z,11.93
2022-10-22T06:56:15.709Z,12.04
2022-10-22T06:59:01.986Z,11.99
2022-10-22T07:01:48.359Z,12.10
2022-10-22T07:04:34.555Z,11.95
2022-10-22T07:07:20.998Z,12.19
2022-10-22T07:10:08.188Z,12.36
2022-10-22T07:12:54.407Z,12.52
2022-10-22T07:15:41.078Z,12.50
2022-10-22T07:18:27.594Z,12.57
2022-10-22T07:21:15.994Z,12.51
2022-10-22T07:24:02.559Z,12.46
2022-10-22T07:26:49.102Z,12.56
2022-10-22T07:29:35.258Z,12.57
2022-10-22T07:32:23.796Z,12.54
2022-10-22T07:35:10.649Z,12.13
2022-10-22T07:37:56.867Z,12.48
2022-10-22T07:40:43.454Z,12.49
2022-10-22T07:43:29.578Z,12.68
2022-10-22T07:46:15.725Z,12.40
2022-10-22T07:49:02.223Z,12.62
2022-10-22T07:51:48.426Z,12.78
2022-10-22T07:54:34.672Z,12.86
2022-10-22T07:57:20.914Z,13.01
2022-10-22T08:00:09.319Z,12.81
2022-10-22T08:02:58.263Z,12.96
2022-10-22T08:05:44.966Z,12.88
2022-10-22T08:08:31.901Z,13.02
2022-10-22T08:11:18.218Z,13.03
2022-10-22T08:14:04.596Z,13.18
2022-10-22T08:16:50.670Z,13.15
2022-10-22T08:19:37.592Z,13.23
2022-10-22T08:22:24.193Z,13.34
2022-10-22T08:25:11.479Z,13.20
2022-10-22T08:27:58.051Z,13.52
2022-10-22T08:30:46.314Z,13.70
2022-10-22T08:33:32.576Z,13.78
2022-10-22T08:36:18.834Z,13.95
2022-10-22T08:39:05.290Z,14.44
2022-10-22T08:42:13.817Z,14.44
2022-10-22T08:45:12.629Z,14.57
2022-10-22T08:48:09.313Z,14.50
2022-10-22T08:50:57.802Z,14.92
2022-10-22T08:54:17.019Z,14.88
2022-10-22T09:00:15.361Z,15.05
2022-10-22T09:03:19.986Z,15.34
2022-10-22T09:06:21.887Z,15.39
2022-10-22T09:09:16.739Z,15.45
2022-10-22T09:12:04.872Z,15.42
2022-10-22T09:14:51.904Z,15.56
2022-10-22T09:17:56.673Z,15.60
2022-10-22T09:21:17.868Z,15.77
2022-10-22T09:24:06.053Z,15.70
2022-10-22T09:26:52.793Z,15.55
2022-10-22T09:29:39.643Z,15.81
2022-10-22T09:32:26.246Z,15.83
2022-10-22T09:35:14.050Z,16.10
2022-10-22T09:38:07.735Z,16.24
2022-10-22T09:40:56.150Z,16.11
2022-10-22T09:43:42.689Z,16.17
2022-10-22T09:46:39.655Z,16.41
2022-10-22T09:49:32.936Z,16.27
2022-10-22T09:52:27.665Z,16.54
2022-10-22T09:55:17.318Z,16.62
2022-10-22T09:58:04.630Z,16.72
2022-10-22T10:01:00.208Z,16.60
2022-10-22T10:03:48.404Z,16.80
2022-10-22T10:06:35.502Z,16.97
2022-10-22T10:09:24.631Z,16.83
2022-10-22T10:12:26.306Z,16.95
2022-10-22T10:15:12.731Z,17.18
2022-10-22T10:18:08.653Z,17.27
2022-10-22T10:24:15.084Z,17.27
2022-10-22T10:27:14.075Z,17.35
2022-10-22T10:30:11.413Z,17.05
2022-10-22T10:33:39.532Z,17.28
2022-10-22T10:36:54.033Z,17.22
2022-10-22T10:40:19.000Z,17.28
2022-10-22T10:43:42.772Z,17.37
2022-10-22T10:46:46.438Z,17.29
2022-10-22T10:49:36.774Z,17.25
2022-10-22T10:52:41.742Z,17.56
2022-10-22T10:55:33.697Z,17.34
2022-10-22T10:58:38.125Z,17.63
2022-10-22T11:01:29.908Z,17.48
2022-10-22T11:04:45.407Z,17.58
2022-10-22T11:07:41.646Z,17.64
2022-10-22T11:10:33.772Z,17.74
2022-10-22T11:13:42.692Z,17.75
2022-10-22T11:16:54.741Z,17.65
2022-10-22T11:19:55.603Z,17.40
2022-10-22T11:23:36.513Z,17.91
2022-10-22T11:26:50.622Z,18.02
2022-10-22T11:29:46.163Z,17.88
2022-10-22T11:32:33.401Z,18.13
2022-10-22T11:35:29.019Z,18.03
2022-10-22T11:38:20.236Z,18.15
2022-10-22T11:41:13.738Z,18.38
2022-10-22T11:44:21.432Z,18.52
2022-10-22T11:47:35.762Z,18.63
2022-10-22T11:50:52.898Z,18.63
2022-10-22T11:53:39.420Z,18.59
2022-10-22T11:56:27.118Z,18.68
2022-10-22T11:59:39.627Z,18.78
2022-10-22T12:02:28.831Z,18.80
2022-10-22T12:05:24.446Z,18.92
2022-10-22T12:08:14.857Z,18.95
2022-10-22T12:11:21.955Z,18.82
2022-10-22T12:14:19.862Z,19.11
2022-10-22T12:17:15.657Z,19.06
2022-10-22T12:20:13.286Z,19.27
2022-10-22T12:22:59.991Z,18.91
2022-10-22T12:25:46.465Z,19.34
2022-10-22T12:28:40.823Z,19.48
2022-10-22T12:31:28.680Z,19.58
2022-10-22T12:34:21.761Z,19.59
2022-10-22T12:37:10.741Z,19.48
2022-10-22T12:39:56.906Z,19.81
2022-10-22T12:43:42.027Z,19.82
2022-10-22T12:46:31.358Z,19.79
2022-10-22T12:49:21.759Z,19.83
2022-10-22T12:52:14.683Z,19.77
2022-10-22T12:55:00.978Z,19.87
2022-10-22T12:57:48.819Z,19.84
2022-10-22T13:00:36.519Z,20.03
2022-10-22T13:04:02.490Z,20.13
2022-10-22T13:07:03.968Z,20.12
2022-10-22T13:09:58.659Z,20.09
2022-10-22T13:12:51.026Z,20.03
2022-10-22T13:15:39.611Z,20.20
2022-10-22T13:18:33.191Z,20.28
2022-10-22T13:21:35.109Z,20.34
2022-10-22T13:24:24.025Z,20.46
2022-10-22T13:27:10.590Z,20.30
2022-10-22T13:30:01.019Z,20.55
2022-10-22T13:32:56.960Z,20.34
2022-10-22T13:35:43.516Z,20.38
2022-10-22T13:38:30.727Z,20.28
2022-10-22T13:41:24.480Z,20.42
2022-10-22T13:44:11.023Z,20.13
2022-10-22T13:46:57.258Z,20.03
2022-10-22T13:49:44.350Z,19.91
2022-10-22T13:52:41.374Z,19.88
2022-10-22T13:55:30.614Z,19.61
2022-10-22T13:58:20.233Z,19.45
2022-10-22T14:01:18.370Z,19.08
2022-10-22T14:04:08.016Z,19.04
2022-10-22T14:06:56.714Z,18.89
2022-10-22T14:09:45.101Z,18.69
2022-10-22T14:12:31.777Z,18.93
2022-10-22T14:15:20.220Z,18.95
2022-10-22T14:18:08.041Z,18.85
2022-10-22T14:20:58.073Z,18.67
2022-10-22T14:23:46.869Z,18.69
2022-10-22T14:26:34.919Z,18.52
2022-10-22T14:29:21.225Z,18.47
2022-10-22T14:32:16.149Z,18.61
2022-10-22T14:35:02.655Z,18.57
2022-10-22T14:37:49.025Z,18.45
2022-10-22T14:40:35.614Z,18.37
2022-10-22T14:43:28.040Z,18.41
2022-10-22T14:46:15.882Z,18.23
2022-10-22T14:49:02.806Z,18.27
2022-10-22T14:51:49.344Z,18.19
2022-10-22T14:54:35.873Z,18.24
2022-10-22T14:57:22.090Z,18.17
2022-10-22T15:00:17.191Z,18.06
2022-10-22T15:03:04.475Z,18.06
2022-10-22T15:05:53.760Z,17.87
2022-10-22T15:08:40.015Z,17.91
2022-10-22T15:11:26.889Z,17.87
2022-10-22T15:14:13.239Z,17.76
2022-10-22T15:16:59.953Z,17.66
2022-10-22T15:19:46.644Z,17.66
2022-10-22T15:22:35.202Z,17.59
2022-10-22T15:25:23.075Z,17.44
2022-10-22T15:28:10.170Z,17.30
2022-10-22T15:30:59.243Z,17.28
2022-10-22T15:33:45.559Z,17.28
2022-10-22T15:36:31.794Z,17.09
2022-10-22T15:39:18.236Z,17.05
2022-10-22T15:42:04.918Z,17.08
2022-10-22T15:44:58.122Z,16.93
2022-10-22T15:47:47.503Z,17.00
2022-10-22T15:50:38.266Z,16.98
2022-10-22T15:53:24.606Z,16.63
2022-10-22T15:56:11.977Z,16.77
2022-10-22T15:59:02.613Z,16.79
2022-10-22T16:01:49.239Z,16.61
2022-10-22T16:04:35.715Z,16.41
2022-10-22T16:07:23.980Z,16.01
2022-10-22T16:10:12.837Z,16.13
2022-10-22T16:12:58.866Z,15.79
2022-10-22T16:15:45.389Z,15.62
2022-10-22T16:18:32.003Z,15.54
2022-10-22T16:21:20.331Z,15.46
2022-10-22T16:24:08.246Z,15.15
2022-10-22T16:26:55.214Z,15.13
2022-10-22T16:29:41.937Z,14.79
2022-10-22T16:32:28.302Z,14.80
2022-10-22T16:35:14.498Z,14.75
2022-10-22T16:38:00.608Z,14.50
2022-10-22T16:40:46.760Z,14.20
2022-10-22T16:43:33.011Z,14.43
2022-10-22T16:46:20.587Z,14.36
2022-10-22T16:49:07.741Z,14.19
2022-10-22T16:51:53.965Z,14.07
2022-10-22T16:54:40.526Z,14.10
2022-10-22T16:57:27.287Z,13.88
2022-10-22T17:00:14.389Z,13.99
2022-10-22T17:03:00.894Z,13.80
2022-10-22T17:05:46.979Z,13.80
2022-10-22T17:08:37.524Z,13.74
2022-10-22T17:11:24.541Z,13.66
2022-10-22T17:14:10.815Z,13.58
2022-10-22T17:16:56.994Z,13.38
2022-10-22T17:19:43.500Z,13.42
2022-10-22T17:22:29.647Z,13.35
2022-10-22T17:25:21.981Z,13.31
2022-10-22T17:28:09.409Z,13.29
2022-10-22T17:31:06.982Z,13.22
2022-10-22T17:33:55.651Z,13.17
2022-10-22T17:36:42.913Z,13.16
2022-10-22T17:39:29.245Z,12.75
2022-10-22T17:42:15.552Z,12.65
2022-10-22T17:45:02.008Z,12.69
2022-10-22T17:47:48.217Z,12.51
2022-10-22T17:50:34.767Z,12.45
2022-10-22T17:53:20.940Z,12.43
2022-10-22T17:56:10.130Z,12.43
2022-10-22T17:58:56.822Z,12.55
2022-10-22T18:01:47.568Z,12.49
2022-10-22T18:04:34.259Z,12.23
2022-10-22T18:07:21.048Z,12.38
2022-10-22T18:10:07.844Z,12.21
2022-10-22T18:12:54.281Z,12.24
2022-10-22T18:15:40.896Z,12.06
2022-10-22T18:18:27.404Z,12.18
2022-10-22T18:21:15.536Z,12.14
2022-10-22T18:24:01.855Z,11.87
2022-10-22T18:26:48.737Z,11.94
2022-10-22T18:29:35.713Z,11.78
2022-10-22T18:32:22.419Z,11.93
2022-10-22T18:35:08.784Z,11.81
2022-10-22T18:37:55.358Z,11.64
2022-10-22T18:40:46.627Z,11.89
2022-10-22T18:43:34.240Z,11.57
2022-10-22T18:46:20.783Z,11.60
2022-10-22T18:49:07.700Z,11.70
2022-10-22T18:51:54.323Z,11.58
2022-10-22T18:54:40.345Z,11.47
2022-10-22T18:57:26.905Z,11.53
2022-10-22T19:00:14.016Z,11.26
2022-10-22T19:03:00.422Z,11.23
2022-10-22T19:05:49.906Z,11.39
2022-10-22T19:08:37.275Z,11.33
2022-10-22T19:11:24.050Z,11.15
2022-10-22T19:14:10.472Z,11.22
2022-10-22T19:16:57.013Z,11.16
2022-10-22T19:19:44.558Z,11.11
2022-10-22T19:22:31.697Z,10.99
2022-10-22T19:25:18.971Z,11.06
2022-10-22T19:28:05.443Z,11.04
2022-10-22T19:30:51.588Z,10.94
2022-10-22T19:33:38.915Z,11.09
2022-10-22T19:36:30.218Z,10.91
2022-10-22T19:39:17.403Z,11.02
2022-10-22T19:42:04.227Z,10.86
2022-10-22T19:44:50.661Z,11.15
2022-10-22T19:47:37.017Z,11.11
2022-10-22T19:50:23.486Z,10.98
2022-10-22T19:53:09.949Z,10.83
2022-10-22T19:55:58.466Z,10.97
2022-10-22T19:58:45.175Z,10.96
2022-10-22T20:01:32.098Z,10.75
2022-10-22T20:04:19.330Z,10.66
2022-10-22T20:07:06.038Z,10.72
2022-10-22T20:09:52.446Z,11.10
2022-10-22T20:12:38.749Z,10.91
2022-10-22T20:15:25.484Z,10.85
2022-10-22T20:18:11.699Z,10.90
2022-10-22T20:20:57.892Z,10.87
2022-10-22T20:23:44.955Z,11.01
2022-10-22T20:26:31.667Z,10.97
2022-10-22T20:29:19.038Z,10.89
2022-10-22T20:32:06.761Z,10.52
2022-10-22T20:34:55.040Z,10.56
2022-10-22T20:37:41.580Z,10.62
2022-10-22T20:40:30.373Z,10.58
2022-10-22T20:43:16.709Z,10.43
2022-10-22T20:46:04.122Z,10.53
2022-10-22T20:48:53.004Z,10.48
2022-10-22T20:51:39.438Z,10.50
2022-10-22T20:54:25.815Z,10.42
2022-10-22T20:57:13.351Z,10.31
2022-10-22T20:59:59.934Z,10.37
2022-10-22T21:02:46.478Z,10.26
2022-10-22T21:05:32.800Z,10.32
2022-10-22T21:08:19.051Z,10.30
2022-10-22T21:11:05.692Z,10.26
2022-10-22T21:13:51.997Z,10.29
2022-10-22T21:16:43.291Z,10.13
2022-10-22T21:19:31.158Z,10.21
2022-10-22T21:22:17.630Z,10.20
2022-10-22T21:25:04.081Z,10.30
2022-10-22T21:27:50.339Z,10.22
2022-10-22T21:30:36.782Z,10.06
2022-10-22T21:33:22.937Z,10.05
2022-10-22T21:36:09.262Z,9.83
2022-10-22T21:38:55.549Z,10.04
2022-10-22T21:41:41.785Z,10.04
2022-10-22T21:44:28.110Z,9.89
2022-10-22T21:47:14.307Z,9.87
2022-10-22T21:50:00.864Z,9.96
2022-10-22T21:52:47.449Z,10.01
2022-10-22T21:55:38.613Z,9.91
2022-10-22T21:58:24.864Z,9.85
2022-10-22T22:01:12.419Z,9.95
2022-10-22T22:03:59.103Z,9.92
2022-10-22T22:06:45.648Z,9.75
2022-10-22T22:09:32.169Z,9.79
2022-10-22T22:12:20.415Z,9.83
2022-10-22T22:15:07.789Z,9.75
2022-10-22T22:17:54.175Z,9.76
2022-10-22T22:20:40.605Z,9.63
2022-10-22T22:23:26.967Z,9.59
2022-10-22T22:26:16.673Z,9.71
2022-10-22T22:29:03.741Z,9.76
2022-10-22T22:31:50.119Z,9.73
2022-10-22T22:34:37.453Z,9.74
2022-10-22T22:37:23.735Z,9.26
2022-10-22T22:40:10.569Z,9.33
2022-10-22T22:42:56.962Z,9.43
2022-10-22T22:45:43.608Z,9.52
2022-10-22T22:48:30.275Z,9.51
2022-10-22T22:51:17.529Z,9.27
2022-10-22T22:54:03.917Z,9.44
2022-10-22T22:56:50.221Z,9.38
2022-10-22T22:59:36.767Z,9.33
2022-10-22T23:02:23.275Z,9.34
2022-10-22T23:05:09.856Z,9.25
2022-10-22T23:07:57.189Z,9.17
2022-10-22T23:10:43.641Z,9.32
2022-10-22T23:13:29.889Z,9.06
2022-10-22T23:16:21.255Z,9.23
2022-10-22T23:19:08.065Z,9.26
2022-10-22T23:21:55.806Z,9.29
2022-10-22T23:24:42.226Z,9.07
2022-10-22T23:27:28.546Z,8.98
2022-10-22T23:30:15.263Z,8.93
2022-10-22T23:33:01.490Z,9.05
2022-10-22T23:35:47.714Z,8.90
2022-10-22T23:38:35.287Z,9.10
2022-10-22T23:41:21.715Z,9.10
2022-10-22T23:44:09.160Z,9.07
2022-10-22T23:46:55.701Z,8.80
2022-10-22T23:49:41.981Z,8.96
2022-10-22T23:52:28.545Z,8.83
2022-10-22T23:55:15.179Z,8.84
2022-10-22T23:58:01.306Z,8.93
